sensor_id;sensor_type;location;lat;lon;timestamp;P1;durP1;ratioP1;P2;durP2;ratioP2
2161;SDS011;1087;50.226;8.682;2023-04-16T00:00:32;11.60;;;9.30;;
2161;SDS011;1087;50.226;8.682;2023-04-16T00:02:57;8.90;;;7.63;;
2161;SDS011;1087;50.226;8.682;2023-04-16T00:05:23;8.80;;;7.67;;
2161;SDS011;1087;50.226;8.682;2023-04-16T00:07:48;8.77;;;6.53;;
2161;SDS011;1087;50.226;8.682;2023-04-16T00:10:15;9.80;;;6.83;;
2161;SDS011;1087;50.226;8.682;2023-04-16T00:12:41;8.53;;;7.63;;
2161;SDS011;1087;50.226;8.682;2023-04-16T00:15:07;8.10;;;7.17;;
2161;SDS011;1087;50.226;8.682;2023-04-16T00:17:32;8.03;;;7.23;;
2161;SDS011;1087;50.226;8.682;2023-04-16T00:19:58;10.73;;;8.07;;
2161;SDS011;1087;50.226;8.682;2023-04-16T00:22:23;8.17;;;6.97;;
2161;SDS011;1087;50.226;8.682;2023-04-16T00:24:49;8.00;;;7.20;;
2161;SDS011;1087;50.226;8.682;2023-04-16T00:27:15;8.50;;;7.57;;
2161;SDS011;1087;50.226;8.682;2023-04-16T00:29:40;10.40;;;8.30;;
2161;SDS011;1087;50.226;8.682;2023-04-16T00:32:06;10.43;;;7.93;;
2161;SDS011;1087;50.226;8.682;2023-04-16T00:34:31;12.53;;;9.00;;
2161;SDS011;1087;50.226;8.682;2023-04-16T00:36:57;9.93;;;7.90;;
2161;SDS011;1087;50.226;8.682;2023-04-16T00:39:23;10.20;;;8.43;;
2161;SDS011;1087;50.226;8.682;2023-04-16T00:41:48;10.07;;;7.10;;
2161;SDS011;1087;50.226;8.682;2023-04-16T00:44:14;8.30;;;7.20;;
2161;SDS011;1087;50.226;8.682;2023-04-16T00:46:40;9.50;;;8.50;;
2161;SDS011;1087;50.226;8.682;2023-04-16T00:49:06;10.17;;;7.77;;
2161;SDS011;1087;50.226;8.682;2023-04-16T00:51:32;9.57;;;8.03;;
2161;SDS011;1087;50.226;8.682;2023-04-16T00:53:59;8.73;;;7.07;;
2161;SDS011;1087;50.226;8.682;2023-04-16T00:56:26;14.33;;;8.70;;
2161;SDS011;1087;50.226;8.682;2023-04-16T00:58:53;9.97;;;7.77;;
2161;SDS011;1087;50.226;8.682;2023-04-16T01:01:20;9.50;;;8.03;;
2161;SDS011;1087;50.226;8.682;2023-04-16T01:03:46;10.43;;;8.33;;
2161;SDS011;1087;50.226;8.682;2023-04-16T01:06:13;10.73;;;8.30;;
2161;SDS011;1087;50.226;8.682;2023-04-16T01:08:40;9.20;;;8.20;;
2161;SDS011;1087;50.226;8.682;2023-04-16T01:11:05;10.57;;;8.40;;
2161;SDS011;1087;50.226;8.682;2023-04-16T01:13:31;8.30;;;7.47;;
2161;SDS011;1087;50.226;8.682;2023-04-16T01:15:57;9.33;;;7.40;;
2161;SDS011;1087;50.226;8.682;2023-04-16T01:18:24;9.80;;;8.30;;
2161;SDS011;1087;50.226;8.682;2023-04-16T01:20:50;11.27;;;8.30;;
2161;SDS011;1087;50.226;8.682;2023-04-16T01:23:16;9.27;;;8.20;;
2161;SDS011;1087;50.226;8.682;2023-04-16T01:25:43;9.63;;;8.63;;
2161;SDS011;1087;50.226;8.682;2023-04-16T01:28:12;11.17;;;8.43;;
2161;SDS011;1087;50.226;8.682;2023-04-16T01:30:37;8.90;;;8.00;;
2161;SDS011;1087;50.226;8.682;2023-04-16T01:33:03;9.57;;;8.37;;
2161;SDS011;1087;50.226;8.682;2023-04-16T01:35:29;11.67;;;7.70;;
2161;SDS011;1087;50.226;8.682;2023-04-16T01:37:55;9.83;;;8.10;;
2161;SDS011;1087;50.226;8.682;2023-04-16T01:40:20;9.63;;;8.03;;
2161;SDS011;1087;50.226;8.682;2023-04-16T01:42:46;10.97;;;8.00;;
2161;SDS011;1087;50.226;8.682;2023-04-16T01:45:11;9.40;;;8.40;;
2161;SDS011;1087;50.226;8.682;2023-04-16T01:47:37;9.60;;;7.97;;
2161;SDS011;1087;50.226;8.682;2023-04-16T01:50:03;9.30;;;7.63;;
2161;SDS011;1087;50.226;8.682;2023-04-16T01:52:29;10.10;;;8.30;;
2161;SDS011;1087;50.226;8.682;2023-04-16T01:54:55;8.97;;;8.07;;
2161;SDS011;1087;50.226;8.682;2023-04-16T01:57:20;9.33;;;7.60;;
2161;SDS011;1087;50.226;8.682;2023-04-16T01:59:46;9.27;;;7.70;;
2161;SDS011;1087;50.226;8.682;2023-04-16T02:02:11;8.53;;;7.53;;
2161;SDS011;1087;50.226;8.682;2023-04-16T02:04:41;8.67;;;7.20;;
2161;SDS011;1087;50.226;8.682;2023-04-16T02:07:08;11.13;;;8.50;;
2161;SDS011;1087;50.226;8.682;2023-04-16T02:09:34;11.87;;;9.30;;
2161;SDS011;1087;50.226;8.682;2023-04-16T02:12:00;10.80;;;8.27;;
2161;SDS011;1087;50.226;8.682;2023-04-16T02:14:27;10.97;;;9.50;;
2161;SDS011;1087;50.226;8.682;2023-04-16T02:16:53;10.73;;;8.60;;
2161;SDS011;1087;50.226;8.682;2023-04-16T02:19:18;9.97;;;8.00;;
2161;SDS011;1087;50.226;8.682;2023-04-16T02:21:44;9.70;;;7.70;;
2161;SDS011;1087;50.226;8.682;2023-04-16T02:24:10;9.37;;;8.43;;
2161;SDS011;1087;50.226;8.682;2023-04-16T02:26:35;8.93;;;7.77;;
2161;SDS011;1087;50.226;8.682;2023-04-16T02:29:01;11.50;;;7.80;;
2161;SDS011;1087;50.226;8.682;2023-04-16T02:31:26;10.27;;;8.00;;
2161;SDS011;1087;50.226;8.682;2023-04-16T02:33:53;11.00;;;8.17;;
2161;SDS011;1087;50.226;8.682;2023-04-16T02:36:18;8.87;;;7.97;;
2161;SDS011;1087;50.226;8.682;2023-04-16T02:38:44;10.20;;;7.73;;
2161;SDS011;1087;50.226;8.682;2023-04-16T02:41:09;7.60;;;6.90;;
2161;SDS011;1087;50.226;8.682;2023-04-16T02:43:35;7.40;;;6.70;;
2161;SDS011;1087;50.226;8.682;2023-04-16T02:46:01;10.90;;;9.40;;
2161;SDS011;1087;50.226;8.682;2023-04-16T02:48:26;11.00;;;8.50;;
2161;SDS011;1087;50.226;8.682;2023-04-16T02:50:52;9.80;;;8.70;;
2161;SDS011;1087;50.226;8.682;2023-04-16T02:53:17;10.47;;;9.00;;
2161;SDS011;1087;50.226;8.682;2023-04-16T02:55:49;11.40;;;8.67;;
2161;SDS011;1087;50.226;8.682;2023-04-16T02:58:19;12.10;;;9.10;;
2161;SDS011;1087;50.226;8.682;2023-04-16T03:00:45;10.03;;;8.30;;
2161;SDS011;1087;50.226;8.682;2023-04-16T03:03:10;10.30;;;9.20;;
2161;SDS011;1087;50.226;8.682;2023-04-16T03:05:36;10.53;;;8.10;;
2161;SDS011;1087;50.226;8.682;2023-04-16T03:08:02;11.60;;;9.83;;
2161;SDS011;1087;50.226;8.682;2023-04-16T03:10:28;11.80;;;9.10;;
2161;SDS011;1087;50.226;8.682;2023-04-16T03:12:54;11.23;;;8.90;;
2161;SDS011;1087;50.226;8.682;2023-04-16T03:15:19;10.50;;;9.40;;
2161;SDS011;1087;50.226;8.682;2023-04-16T03:17:45;12.33;;;9.13;;
2161;SDS011;1087;50.226;8.682;2023-04-16T03:20:10;11.10;;;9.50;;
2161;SDS011;1087;50.226;8.682;2023-04-16T03:22:37;11.00;;;9.67;;
2161;SDS011;1087;50.226;8.682;2023-04-16T03:25:03;10.00;;;9.00;;
2161;SDS011;1087;50.226;8.682;2023-04-16T03:27:29;12.10;;;9.83;;
2161;SDS011;1087;50.226;8.682;2023-04-16T03:29:55;12.80;;;10.10;;
2161;SDS011;1087;50.226;8.682;2023-04-16T03:32:20;11.00;;;8.70;;
2161;SDS011;1087;50.226;8.682;2023-04-16T03:34:46;12.07;;;9.00;;
2161;SDS011;1087;50.226;8.682;2023-04-16T03:37:11;11.83;;;9.47;;
2161;SDS011;1087;50.226;8.682;2023-04-16T03:39:36;12.03;;;9.07;;
2161;SDS011;1087;50.226;8.682;2023-04-16T03:42:02;12.57;;;9.97;;
2161;SDS011;1087;50.226;8.682;2023-04-16T03:44:28;10.37;;;9.30;;
2161;SDS011;1087;50.226;8.682;2023-04-16T03:46:53;11.37;;;10.27;;
2161;SDS011;1087;50.226;8.682;2023-04-16T03:49:19;12.20;;;10.63;;
2161;SDS011;1087;50.226;8.682;2023-04-16T03:51:45;11.00;;;9.13;;
2161;SDS011;1087;50.226;8.682;2023-04-16T03:54:11;12.23;;;9.60;;
2161;SDS011;1087;50.226;8.682;2023-04-16T03:56:38;11.57;;;9.67;;
2161;SDS011;1087;50.226;8.682;2023-04-16T03:59:05;11.33;;;10.13;;
2161;SDS011;1087;50.226;8.682;2023-04-16T04:01:30;10.97;;;9.27;;
2161;SDS011;1087;50.226;8.682;2023-04-16T04:03:55;13.03;;;9.30;;
2161;SDS011;1087;50.226;8.682;2023-04-16T04:06:21;10.53;;;9.47;;
2161;SDS011;1087;50.226;8.682;2023-04-16T04:08:47;10.73;;;8.10;;
2161;SDS011;1087;50.226;8.682;2023-04-16T04:11:12;11.90;;;9.60;;
2161;SDS011;1087;50.226;8.682;2023-04-16T04:13:37;12.27;;;9.90;;
2161;SDS011;1087;50.226;8.682;2023-04-16T04:16:03;11.80;;;9.60;;
2161;SDS011;1087;50.226;8.682;2023-04-16T04:18:29;13.40;;;9.70;;
2161;SDS011;1087;50.226;8.682;2023-04-16T04:20:55;12.07;;;10.00;;
2161;SDS011;1087;50.226;8.682;2023-04-16T04:23:21;11.30;;;9.53;;
2161;SDS011;1087;50.226;8.682;2023-04-16T04:25:47;11.07;;;9.20;;
2161;SDS011;1087;50.226;8.682;2023-04-16T04:28:13;14.60;;;11.10;;
2161;SDS011;1087;50.226;8.682;2023-04-16T04:30:38;16.97;;;11.33;;
2161;SDS011;1087;50.226;8.682;2023-04-16T04:33:04;14.10;;;11.47;;
2161;SDS011;1087;50.226;8.682;2023-04-16T04:35:30;10.07;;;8.40;;
2161;SDS011;1087;50.226;8.682;2023-04-16T04:37:55;13.30;;;10.10;;
2161;SDS011;1087;50.226;8.682;2023-04-16T04:40:21;12.47;;;10.00;;
2161;SDS011;1087;50.226;8.682;2023-04-16T04:42:46;13.50;;;9.60;;
2161;SDS011;1087;50.226;8.682;2023-04-16T04:45:12;10.00;;;7.83;;
2161;SDS011;1087;50.226;8.682;2023-04-16T04:47:37;11.20;;;8.43;;
2161;SDS011;1087;50.226;8.682;2023-04-16T04:50:03;8.13;;;7.30;;
2161;SDS011;1087;50.226;8.682;2023-04-16T04:52:29;7.80;;;6.90;;
2161;SDS011;1087;50.226;8.682;2023-04-16T04:54:54;9.60;;;8.63;;
2161;SDS011;1087;50.226;8.682;2023-04-16T04:57:20;8.37;;;6.93;;
2161;SDS011;1087;50.226;8.682;2023-04-16T04:59:45;7.70;;;6.80;;
2161;SDS011;1087;50.226;8.682;2023-04-16T05:02:11;9.03;;;7.27;;
2161;SDS011;1087;50.226;8.682;2023-04-16T05:04:37;9.17;;;7.33;;
2161;SDS011;1087;50.226;8.682;2023-04-16T05:07:02;8.90;;;7.20;;
2161;SDS011;1087;50.226;8.682;2023-04-16T05:09:28;10.20;;;7.80;;
2161;SDS011;1087;50.226;8.682;2023-04-16T05:11:53;8.60;;;7.03;;
2161;SDS011;1087;50.226;8.682;2023-04-16T05:14:18;7.40;;;6.43;;
2161;SDS011;1087;50.226;8.682;2023-04-16T05:16:44;9.30;;;7.57;;
2161;SDS011;1087;50.226;8.682;2023-04-16T05:19:10;8.30;;;7.40;;
2161;SDS011;1087;50.226;8.682;2023-04-16T05:21:35;9.00;;;7.73;;
2161;SDS011;1087;50.226;8.682;2023-04-16T05:24:01;7.27;;;6.57;;
2161;SDS011;1087;50.226;8.682;2023-04-16T05:26:26;8.80;;;7.90;;
2161;SDS011;1087;50.226;8.682;2023-04-16T05:28:52;10.40;;;8.20;;
2161;SDS011;1087;50.226;8.682;2023-04-16T05:31:17;9.77;;;7.97;;
2161;SDS011;1087;50.226;8.682;2023-04-16T05:33:43;10.37;;;8.07;;
2161;SDS011;1087;50.226;8.682;2023-04-16T05:36:08;7.93;;;7.07;;
2161;SDS011;1087;50.226;8.682;2023-04-16T05:38:34;10.50;;;7.80;;
2161;SDS011;1087;50.226;8.682;2023-04-16T05:40:59;10.70;;;8.10;;
2161;SDS011;1087;50.226;8.682;2023-04-16T05:43:25;7.60;;;6.80;;
2161;SDS011;1087;50.226;8.682;2023-04-16T05:45:50;8.57;;;7.13;;
2161;SDS011;1087;50.226;8.682;2023-04-16T05:48:16;9.37;;;7.87;;
2161;SDS011;1087;50.226;8.682;2023-04-16T05:50:41;8.93;;;7.67;;
2161;SDS011;1087;50.226;8.682;2023-04-16T05:53:07;10.67;;;8.20;;
2161;SDS011;1087;50.226;8.682;2023-04-16T05:55:33;9.10;;;7.70;;
2161;SDS011;1087;50.226;8.682;2023-04-16T05:58:00;8.40;;;7.37;;
2161;SDS011;1087;50.226;8.682;2023-04-16T06:00:28;9.43;;;7.60;;
2161;SDS011;1087;50.226;8.682;2023-04-16T06:02:54;10.20;;;7.30;;
2161;SDS011;1087;50.226;8.682;2023-04-16T06:05:20;8.93;;;8.00;;
2161;SDS011;1087;50.226;8.682;2023-04-16T06:07:45;9.50;;;7.60;;
2161;SDS011;1087;50.226;8.682;2023-04-16T06:10:11;8.00;;;6.80;;
2161;SDS011;1087;50.226;8.682;2023-04-16T06:12:36;8.47;;;7.27;;
2161;SDS011;1087;50.226;8.682;2023-04-16T06:15:02;10.20;;;7.40;;
2161;SDS011;1087;50.226;8.682;2023-04-16T06:17:27;8.60;;;7.30;;
2161;SDS011;1087;50.226;8.682;2023-04-16T06:19:53;7.63;;;6.83;;
2161;SDS011;1087;50.226;8.682;2023-04-16T06:22:18;8.40;;;7.17;;
2161;SDS011;1087;50.226;8.682;2023-04-16T06:24:44;8.73;;;7.60;;
2161;SDS011;1087;50.226;8.682;2023-04-16T06:27:10;7.30;;;6.43;;
2161;SDS011;1087;50.226;8.682;2023-04-16T06:29:35;9.27;;;7.47;;
2161;SDS011;1087;50.226;8.682;2023-04-16T06:32:01;7.77;;;6.23;;
2161;SDS011;1087;50.226;8.682;2023-04-16T06:34:27;6.80;;;5.80;;
2161;SDS011;1087;50.226;8.682;2023-04-16T06:36:53;9.43;;;7.27;;
2161;SDS011;1087;50.226;8.682;2023-04-16T06:39:19;7.97;;;6.60;;
2161;SDS011;1087;50.226;8.682;2023-04-16T06:41:47;7.93;;;7.13;;
2161;SDS011;1087;50.226;8.682;2023-04-16T06:44:13;10.33;;;8.00;;
2161;SDS011;1087;50.226;8.682;2023-04-16T06:46:39;7.57;;;6.80;;
2161;SDS011;1087;50.226;8.682;2023-04-16T06:49:05;10.40;;;8.50;;
2161;SDS011;1087;50.226;8.682;2023-04-16T06:51:31;11.00;;;8.30;;
2161;SDS011;1087;50.226;8.682;2023-04-16T06:53:56;9.17;;;7.77;;
2161;SDS011;1087;50.226;8.682;2023-04-16T06:56:22;11.27;;;8.53;;
2161;SDS011;1087;50.226;8.682;2023-04-16T06:58:47;8.53;;;7.63;;
2161;SDS011;1087;50.226;8.682;2023-04-16T07:01:13;9.13;;;8.23;;
2161;SDS011;1087;50.226;8.682;2023-04-16T07:03:39;8.80;;;8.00;;
2161;SDS011;1087;50.226;8.682;2023-04-16T07:06:04;8.90;;;8.00;;
2161;SDS011;1087;50.226;8.682;2023-04-16T07:08:30;9.90;;;8.50;;
2161;SDS011;1087;50.226;8.682;2023-04-16T07:10:56;12.10;;;8.27;;
2161;SDS011;1087;50.226;8.682;2023-04-16T07:13:22;10.17;;;8.97;;
2161;SDS011;1087;50.226;8.682;2023-04-16T07:15:47;9.53;;;8.23;;
2161;SDS011;1087;50.226;8.682;2023-04-16T07:18:13;10.30;;;9.27;;
2161;SDS011;1087;50.226;8.682;2023-04-16T07:20:38;10.80;;;9.00;;
2161;SDS011;1087;50.226;8.682;2023-04-16T07:23:04;12.40;;;9.67;;
2161;SDS011;1087;50.226;8.682;2023-04-16T07:25:30;10.63;;;9.57;;
2161;SDS011;1087;50.226;8.682;2023-04-16T07:27:55;10.77;;;9.30;;
2161;SDS011;1087;50.226;8.682;2023-04-16T07:30:21;12.53;;;9.47;;
2161;SDS011;1087;50.226;8.682;2023-04-16T07:32:46;9.13;;;8.20;;
2161;SDS011;1087;50.226;8.682;2023-04-16T07:35:12;12.20;;;9.30;;
2161;SDS011;1087;50.226;8.682;2023-04-16T07:37:37;10.43;;;8.63;;
2161;SDS011;1087;50.226;8.682;2023-04-16T07:40:03;9.97;;;8.93;;
2161;SDS011;1087;50.226;8.682;2023-04-16T07:42:28;12.60;;;10.33;;
2161;SDS011;1087;50.226;8.682;2023-04-16T07:44:54;11.03;;;9.63;;
2161;SDS011;1087;50.226;8.682;2023-04-16T07:47:19;12.43;;;10.87;;
2161;SDS011;1087;50.226;8.682;2023-04-16T07:49:47;11.80;;;9.60;;
2161;SDS011;1087;50.226;8.682;2023-04-16T07:52:13;11.37;;;9.77;;
2161;SDS011;1087;50.226;8.682;2023-04-16T07:54:38;12.13;;;9.80;;
2161;SDS011;1087;50.226;8.682;2023-04-16T07:57:04;12.93;;;8.97;;
2161;SDS011;1087;50.226;8.682;2023-04-16T07:59:29;11.20;;;9.67;;
2161;SDS011;1087;50.226;8.682;2023-04-16T08:01:55;13.10;;;10.80;;
2161;SDS011;1087;50.226;8.682;2023-04-16T08:04:21;11.10;;;9.90;;
2161;SDS011;1087;50.226;8.682;2023-04-16T08:06:50;12.00;;;8.70;;
2161;SDS011;1087;50.226;8.682;2023-04-16T08:09:15;11.20;;;9.50;;
2161;SDS011;1087;50.226;8.682;2023-04-16T08:11:42;11.10;;;9.17;;
2161;SDS011;1087;50.226;8.682;2023-04-16T08:14:08;11.23;;;10.03;;
2161;SDS011;1087;50.226;8.682;2023-04-16T08:16:33;11.40;;;9.47;;
2161;SDS011;1087;50.226;8.682;2023-04-16T08:18:59;11.17;;;10.00;;
2161;SDS011;1087;50.226;8.682;2023-04-16T08:21:25;10.70;;;9.50;;
2161;SDS011;1087;50.226;8.682;2023-04-16T08:23:52;12.80;;;10.73;;
2161;SDS011;1087;50.226;8.682;2023-04-16T08:26:17;12.80;;;11.00;;
2161;SDS011;1087;50.226;8.682;2023-04-16T08:28:43;13.13;;;10.10;;
2161;SDS011;1087;50.226;8.682;2023-04-16T08:31:09;13.93;;;9.87;;
2161;SDS011;1087;50.226;8.682;2023-04-16T08:33:35;11.27;;;9.30;;
2161;SDS011;1087;50.226;8.682;2023-04-16T08:36:00;13.27;;;10.90;;
2161;SDS011;1087;50.226;8.682;2023-04-16T08:38:26;10.90;;;9.30;;
2161;SDS011;1087;50.226;8.682;2023-04-16T08:40:51;10.93;;;9.80;;
2161;SDS011;1087;50.226;8.682;2023-04-16T08:43:18;12.70;;;10.93;;
2161;SDS011;1087;50.226;8.682;2023-04-16T08:45:47;13.23;;;11.60;;
2161;SDS011;1087;50.226;8.682;2023-04-16T08:48:13;14.43;;;10.97;;
2161;SDS011;1087;50.226;8.682;2023-04-16T08:50:39;16.73;;;13.90;;
2161;SDS011;1087;50.226;8.682;2023-04-16T08:53:05;13.13;;;11.80;;
2161;SDS011;1087;50.226;8.682;2023-04-16T08:55:36;13.63;;;12.00;;
2161;SDS011;1087;50.226;8.682;2023-04-16T08:58:13;15.50;;;11.87;;
2161;SDS011;1087;50.226;8.682;2023-04-16T09:00:42;11.93;;;10.60;;
2161;SDS011;1087;50.226;8.682;2023-04-16T09:03:08;11.77;;;10.57;;
2161;SDS011;1087;50.226;8.682;2023-04-16T09:05:36;12.40;;;11.10;;
2161;SDS011;1087;50.226;8.682;2023-04-16T09:08:05;12.40;;;11.07;;
2161;SDS011;1087;50.226;8.682;2023-04-16T09:10:31;13.57;;;12.27;;
2161;SDS011;1087;50.226;8.682;2023-04-16T09:12:57;13.03;;;11.60;;
2161;SDS011;1087;50.226;8.682;2023-04-16T09:15:23;14.20;;;10.60;;
2161;SDS011;1087;50.226;8.682;2023-04-16T09:17:52;12.33;;;10.00;;
2161;SDS011;1087;50.226;8.682;2023-04-16T09:20:18;13.20;;;11.80;;
2161;SDS011;1087;50.226;8.682;2023-04-16T09:22:44;14.67;;;11.10;;
2161;SDS011;1087;50.226;8.682;2023-04-16T09:25:10;12.50;;;9.97;;
2161;SDS011;1087;50.226;8.682;2023-04-16T09:27:37;11.80;;;10.23;;
2161;SDS011;1087;50.226;8.682;2023-04-16T09:30:18;11.77;;;10.13;;
2161;SDS011;1087;50.226;8.682;2023-04-16T09:32:49;12.87;;;10.40;;
2161;SDS011;1087;50.226;8.682;2023-04-16T09:35:17;16.37;;;11.30;;
2161;SDS011;1087;50.226;8.682;2023-04-16T09:37:43;13.10;;;10.50;;
2161;SDS011;1087;50.226;8.682;2023-04-16T09:40:18;14.50;;;11.73;;
2161;SDS011;1087;50.226;8.682;2023-04-16T09:42:49;12.07;;;10.10;;
2161;SDS011;1087;50.226;8.682;2023-04-16T09:45:16;14.23;;;10.37;;
2161;SDS011;1087;50.226;8.682;2023-04-16T09:47:42;12.47;;;10.63;;
2161;SDS011;1087;50.226;8.682;2023-04-16T09:50:09;12.87;;;11.43;;
2161;SDS011;1087;50.226;8.682;2023-04-16T09:52:43;10.87;;;9.60;;
2161;SDS011;1087;50.226;8.682;2023-04-16T09:55:12;11.43;;;9.93;;
2161;SDS011;1087;50.226;8.682;2023-04-16T09:57:38;10.93;;;9.53;;
2161;SDS011;1087;50.226;8.682;2023-04-16T10:00:04;10.57;;;9.17;;
2161;SDS011;1087;50.226;8.682;2023-04-16T10:02:32;11.47;;;10.33;;
2161;SDS011;1087;50.226;8.682;2023-04-16T10:04:59;11.90;;;10.57;;
2161;SDS011;1087;50.226;8.682;2023-04-16T10:07:27;11.13;;;9.93;;
2161;SDS011;1087;50.226;8.682;2023-04-16T10:09:53;11.30;;;9.80;;
2161;SDS011;1087;50.226;8.682;2023-04-16T10:12:19;11.90;;;10.70;;
2161;SDS011;1087;50.226;8.682;2023-04-16T10:14:45;13.00;;;10.23;;
2161;SDS011;1087;50.226;8.682;2023-04-16T10:17:11;12.90;;;11.50;;
2161;SDS011;1087;50.226;8.682;2023-04-16T10:19:36;13.83;;;9.73;;
2161;SDS011;1087;50.226;8.682;2023-04-16T10:22:03;11.10;;;9.30;;
2161;SDS011;1087;50.226;8.682;2023-04-16T10:24:29;13.83;;;10.47;;
2161;SDS011;1087;50.226;8.682;2023-04-16T10:26:56;13.90;;;12.40;;
2161;SDS011;1087;50.226;8.682;2023-04-16T10:29:23;13.60;;;10.77;;
2161;SDS011;1087;50.226;8.682;2023-04-16T10:31:50;11.97;;;10.77;;
2161;SDS011;1087;50.226;8.682;2023-04-16T10:34:19;12.57;;;10.50;;
2161;SDS011;1087;50.226;8.682;2023-04-16T10:36:49;12.60;;;10.50;;
2161;SDS011;1087;50.226;8.682;2023-04-16T10:39:20;10.70;;;9.03;;
2161;SDS011;1087;50.226;8.682;2023-04-16T10:41:47;10.00;;;8.83;;
2161;SDS011;1087;50.226;8.682;2023-04-16T10:44:15;10.13;;;8.97;;
2161;SDS011;1087;50.226;8.682;2023-04-16T10:46:42;12.63;;;10.40;;
2161;SDS011;1087;50.226;8.682;2023-04-16T10:49:18;12.23;;;10.27;;
2161;SDS011;1087;50.226;8.682;2023-04-16T10:54:30;10.53;;;9.40;;
2161;SDS011;1087;50.226;8.682;2023-04-16T10:56:57;12.13;;;9.90;;
2161;SDS011;1087;50.226;8.682;2023-04-16T10:59:24;11.60;;;10.40;;
2161;SDS011;1087;50.226;8.682;2023-04-16T11:01:54;12.23;;;10.23;;
2161;SDS011;1087;50.226;8.682;2023-04-16T11:04:25;12.10;;;10.20;;
2161;SDS011;1087;50.226;8.682;2023-04-16T11:12:15;13.37;;;11.20;;
2161;SDS011;1087;50.226;8.682;2023-04-16T11:14:45;13.63;;;11.97;;
2161;SDS011;1087;50.226;8.682;2023-04-16T11:17:12;15.50;;;12.73;;
2161;SDS011;1087;50.226;8.682;2023-04-16T11:19:38;13.83;;;11.03;;
2161;SDS011;1087;50.226;8.682;2023-04-16T11:22:03;12.50;;;11.17;;
2161;SDS011;1087;50.226;8.682;2023-04-16T11:24:30;13.03;;;11.13;;
2161;SDS011;1087;50.226;8.682;2023-04-16T11:26:56;14.10;;;12.20;;
2161;SDS011;1087;50.226;8.682;2023-04-16T11:29:21;15.77;;;12.30;;
2161;SDS011;1087;50.226;8.682;2023-04-16T11:31:50;12.20;;;10.93;;
2161;SDS011;1087;50.226;8.682;2023-04-16T11:34:16;13.97;;;11.73;;
2161;SDS011;1087;50.226;8.682;2023-04-16T11:36:43;13.70;;;12.10;;
2161;SDS011;1087;50.226;8.682;2023-04-16T11:39:09;13.20;;;11.70;;
2161;SDS011;1087;50.226;8.682;2023-04-16T11:41:41;14.60;;;12.60;;
2161;SDS011;1087;50.226;8.682;2023-04-16T11:46:43;12.80;;;11.50;;
2161;SDS011;1087;50.226;8.682;2023-04-16T11:49:09;16.30;;;11.93;;
2161;SDS011;1087;50.226;8.682;2023-04-16T11:51:38;14.60;;;12.13;;
2161;SDS011;1087;50.226;8.682;2023-04-16T11:54:05;13.67;;;12.17;;
2161;SDS011;1087;50.226;8.682;2023-04-16T11:56:32;12.83;;;11.40;;
2161;SDS011;1087;50.226;8.682;2023-04-16T11:59:08;12.93;;;11.57;;
2161;SDS011;1087;50.226;8.682;2023-04-16T12:01:35;15.20;;;12.20;;
2161;SDS011;1087;50.226;8.682;2023-04-16T12:04:03;14.43;;;12.27;;
2161;SDS011;1087;50.226;8.682;2023-04-16T12:06:28;14.97;;;12.73;;
2161;SDS011;1087;50.226;8.682;2023-04-16T12:08:56;14.83;;;12.80;;
2161;SDS011;1087;50.226;8.682;2023-04-16T12:11:36;15.47;;;13.20;;
2161;SDS011;1087;50.226;8.682;2023-04-16T12:14:09;16.73;;;14.33;;
2161;SDS011;1087;50.226;8.682;2023-04-16T12:16:36;16.63;;;14.47;;
2161;SDS011;1087;50.226;8.682;2023-04-16T12:19:02;16.73;;;14.73;;
2161;SDS011;1087;50.226;8.682;2023-04-16T12:21:35;16.47;;;14.87;;
2161;SDS011;1087;50.226;8.682;2023-04-16T12:24:09;18.97;;;15.13;;
2161;SDS011;1087;50.226;8.682;2023-04-16T12:26:38;17.87;;;15.20;;
2161;SDS011;1087;50.226;8.682;2023-04-16T12:29:18;20.00;;;17.30;;
2161;SDS011;1087;50.226;8.682;2023-04-16T12:31:49;16.53;;;14.60;;
2161;SDS011;1087;50.226;8.682;2023-04-16T12:34:15;17.50;;;15.70;;
2161;SDS011;1087;50.226;8.682;2023-04-16T12:36:42;19.60;;;16.23;;
2161;SDS011;1087;50.226;8.682;2023-04-16T12:39:08;19.30;;;16.27;;
2161;SDS011;1087;50.226;8.682;2023-04-16T12:41:38;18.40;;;16.50;;
2161;SDS011;1087;50.226;8.682;2023-04-16T12:46:41;22.47;;;19.47;;
2161;SDS011;1087;50.226;8.682;2023-04-16T12:49:08;22.40;;;19.03;;
2161;SDS011;1087;50.226;8.682;2023-04-16T12:51:34;20.83;;;17.63;;
2161;SDS011;1087;50.226;8.682;2023-04-16T12:54:02;20.90;;;18.37;;
2161;SDS011;1087;50.226;8.682;2023-04-16T12:56:30;22.10;;;19.70;;
2161;SDS011;1087;50.226;8.682;2023-04-16T12:58:55;21.77;;;18.10;;
2161;SDS011;1087;50.226;8.682;2023-04-16T13:01:21;21.43;;;17.60;;
2161;SDS011;1087;50.226;8.682;2023-04-16T13:03:47;19.30;;;16.90;;
2161;SDS011;1087;50.226;8.682;2023-04-16T13:06:13;19.87;;;17.70;;
2161;SDS011;1087;50.226;8.682;2023-04-16T13:08:40;21.43;;;17.30;;
2161;SDS011;1087;50.226;8.682;2023-04-16T13:11:07;19.37;;;17.30;;
2161;SDS011;1087;50.226;8.682;2023-04-16T13:13:32;20.43;;;17.73;;
2161;SDS011;1087;50.226;8.682;2023-04-16T13:15:58;21.07;;;17.10;;
2161;SDS011;1087;50.226;8.682;2023-04-16T13:18:27;21.10;;;17.00;;
2161;SDS011;1087;50.226;8.682;2023-04-16T13:20:52;19.17;;;17.27;;
2161;SDS011;1087;50.226;8.682;2023-04-16T13:23:18;19.40;;;16.80;;
2161;SDS011;1087;50.226;8.682;2023-04-16T13:25:44;19.07;;;17.07;;
2161;SDS011;1087;50.226;8.682;2023-04-16T13:28:09;18.93;;;15.80;;
2161;SDS011;1087;50.226;8.682;2023-04-16T13:30:35;18.83;;;16.50;;
2161;SDS011;1087;50.226;8.682;2023-04-16T13:33:01;18.80;;;15.40;;
2161;SDS011;1087;50.226;8.682;2023-04-16T13:35:27;16.80;;;15.00;;
2161;SDS011;1087;50.226;8.682;2023-04-16T13:37:53;17.10;;;15.30;;
2161;SDS011;1087;50.226;8.682;2023-04-16T13:40:19;16.70;;;14.80;;
2161;SDS011;1087;50.226;8.682;2023-04-16T13:42:44;17.00;;;14.80;;
2161;SDS011;1087;50.226;8.682;2023-04-16T13:45:10;15.80;;;13.10;;
2161;SDS011;1087;50.226;8.682;2023-04-16T13:47:37;14.80;;;13.17;;
2161;SDS011;1087;50.226;8.682;2023-04-16T13:50:04;14.90;;;13.40;;
2161;SDS011;1087;50.226;8.682;2023-04-16T13:52:30;15.70;;;13.30;;
2161;SDS011;1087;50.226;8.682;2023-04-16T13:54:55;13.83;;;12.43;;
2161;SDS011;1087;50.226;8.682;2023-04-16T13:57:21;15.33;;;12.87;;
2161;SDS011;1087;50.226;8.682;2023-04-16T13:59:46;14.00;;;11.70;;
2161;SDS011;1087;50.226;8.682;2023-04-16T14:02:12;14.70;;;13.30;;
2161;SDS011;1087;50.226;8.682;2023-04-16T14:04:37;12.80;;;11.50;;
2161;SDS011;1087;50.226;8.682;2023-04-16T14:07:03;13.57;;;11.50;;
2161;SDS011;1087;50.226;8.682;2023-04-16T14:09:28;13.77;;;11.97;;
2161;SDS011;1087;50.226;8.682;2023-04-16T14:11:54;11.97;;;10.77;;
2161;SDS011;1087;50.226;8.682;2023-04-16T14:14:20;12.20;;;11.03;;
2161;SDS011;1087;50.226;8.682;2023-04-16T14:16:45;10.90;;;9.37;;
2161;SDS011;1087;50.226;8.682;2023-04-16T14:19:11;12.17;;;10.10;;
2161;SDS011;1087;50.226;8.682;2023-04-16T14:21:36;11.33;;;10.17;;
2161;SDS011;1087;50.226;8.682;2023-04-16T14:24:02;11.10;;;10.00;;
2161;SDS011;1087;50.226;8.682;2023-04-16T14:26:27;11.80;;;10.07;;
2161;SDS011;1087;50.226;8.682;2023-04-16T14:28:53;10.93;;;9.80;;
2161;SDS011;1087;50.226;8.682;2023-04-16T14:31:18;10.83;;;9.73;;
2161;SDS011;1087;50.226;8.682;2023-04-16T14:33:44;11.37;;;9.27;;
2161;SDS011;1087;50.226;8.682;2023-04-16T14:36:10;10.90;;;9.90;;
2161;SDS011;1087;50.226;8.682;2023-04-16T14:38:36;12.60;;;11.30;;
2161;SDS011;1087;50.226;8.682;2023-04-16T14:41:02;14.70;;;11.30;;
2161;SDS011;1087;50.226;8.682;2023-04-16T14:43:27;14.83;;;11.73;;
2161;SDS011;1087;50.226;8.682;2023-04-16T14:45:53;13.13;;;11.70;;
2161;SDS011;1087;50.226;8.682;2023-04-16T14:48:18;11.77;;;10.60;;
2161;SDS011;1087;50.226;8.682;2023-04-16T14:50:44;13.13;;;11.60;;
2161;SDS011;1087;50.226;8.682;2023-04-16T14:53:10;12.00;;;10.90;;
2161;SDS011;1087;50.226;8.682;2023-04-16T14:55:35;11.90;;;10.70;;
2161;SDS011;1087;50.226;8.682;2023-04-16T14:58:01;12.70;;;11.40;;
2161;SDS011;1087;50.226;8.682;2023-04-16T15:00:27;11.80;;;10.70;;
2161;SDS011;1087;50.226;8.682;2023-04-16T15:02:53;12.23;;;10.70;;
2161;SDS011;1087;50.226;8.682;2023-04-16T15:05:18;11.50;;;10.43;;
2161;SDS011;1087;50.226;8.682;2023-04-16T15:07:44;12.20;;;10.50;;